createdAt,value
2018-08-31T00:01:42.152Z,10.70
2018-08-31T00:04:41.386Z,10.63
2018-08-31T00:07:29.419Z,10.90
2018-08-31T00:12:47.271Z,10.27
2018-08-31T00:15:18.511Z,11.80
2018-08-31T00:17:49.973Z,10.23
2018-08-31T00:20:21.143Z,12.13
2018-08-31T00:22:52.440Z,13.83
2018-08-31T00:26:10.688Z,11.93
2018-08-31T00:29:13.463Z,11.50
2018-08-31T00:34:07.851Z,11.33
2018-08-31T00:38:12.832Z,12.10
2018-08-31T00:46:08.531Z,10.70
2018-08-31T00:48:40.041Z,10.07
2018-08-31T00:51:11.160Z,9.67
2018-08-31T00:53:42.579Z,11.23
2018-08-31T00:56:13.885Z,11.17
2018-08-31T00:58:44.911Z,11.07
2018-08-31T01:01:16.072Z,13.13
2018-08-31T01:03:47.255Z,10.37
2018-08-31T01:06:18.344Z,10.23
2018-08-31T01:08:49.704Z,9.23
2018-08-31T01:11:21.219Z,10.63
2018-08-31T01:13:52.713Z,10.10
2018-08-31T01:16:24.010Z,11.40
2018-08-31T01:18:55.499Z,8.63
2018-08-31T01:21:27.003Z,10.03
2018-08-31T01:23:58.218Z,9.43
2018-08-31T01:26:29.595Z,10.00
2018-08-31T01:29:00.943Z,9.50
2018-08-31T01:31:32.004Z,9.80
2018-08-31T01:34:03.359Z,9.37
2018-08-31T01:36:34.712Z,9.17
2018-08-31T01:39:06.444Z,8.77
2018-08-31T01:41:37.710Z,11.23
2018-08-31T01:44:08.743Z,8.60
2018-08-31T01:46:39.907Z,10.80
2018-08-31T01:49:11.288Z,11.70
2018-08-31T01:51:43.271Z,10.13
2018-08-31T01:54:15.323Z,10.73
2018-08-31T01:56:48.106Z,9.33
2018-08-31T01:59:19.453Z,11.50
2018-08-31T02:01:50.784Z,11.33
2018-08-31T02:04:21.781Z,10.27
2018-08-31T02:06:53.144Z,10.40
2018-08-31T02:09:24.154Z,10.70
2018-08-31T02:11:55.376Z,12.07
2018-08-31T02:14:26.555Z,9.87
2018-08-31T02:16:57.907Z,9.57
2018-08-31T02:19:29.167Z,9.60
2018-08-31T02:22:00.808Z,9.00
2018-08-31T02:24:31.955Z,10.40
2018-08-31T02:27:03.207Z,10.67
2018-08-31T02:29:34.535Z,10.33
2018-08-31T02:32:05.910Z,8.93
2018-08-31T02:34:37.058Z,10.23
2018-08-31T02:37:08.424Z,9.60
2018-08-31T02:39:39.660Z,12.10
2018-08-31T02:42:10.850Z,9.60
2018-08-31T02:44:42.239Z,10.00
2018-08-31T02:47:13.444Z,9.30
2018-08-31T02:49:44.827Z,10.23
2018-08-31T02:52:16.176Z,8.63
2018-08-31T02:54:47.181Z,10.13
2018-08-31T02:57:18.668Z,8.47
2018-08-31T02:59:49.966Z,9.50
2018-08-31T03:02:21.008Z,9.50
2018-08-31T03:04:52.360Z,8.00
2018-08-31T03:07:23.384Z,9.30
2018-08-31T03:09:54.767Z,8.83
2018-08-31T03:12:26.118Z,10.37
2018-08-31T03:14:57.395Z,8.77
2018-08-31T03:17:28.707Z,8.93
2018-08-31T03:20:00.167Z,10.30
2018-08-31T03:22:31.304Z,8.80
2018-08-31T03:25:02.718Z,10.27
2018-08-31T03:27:34.351Z,9.73
2018-08-31T03:30:05.920Z,8.17
2018-08-31T03:32:37.246Z,9.53
2018-08-31T03:35:08.257Z,9.47
2018-08-31T03:37:39.436Z,9.00
2018-08-31T03:40:11.472Z,8.83
2018-08-31T03:42:42.587Z,9.07
2018-08-31T03:45:14.054Z,10.77
2018-08-31T03:47:45.146Z,9.50
2018-08-31T03:50:16.711Z,8.33
2018-08-31T03:52:47.975Z,10.80
2018-08-31T03:55:19.657Z,11.37
2018-08-31T03:57:50.940Z,9.40
2018-08-31T04:00:22.352Z,9.17
2018-08-31T04:02:53.739Z,10.83
2018-08-31T04:05:24.903Z,11.00
2018-08-31T04:07:56.250Z,9.27
2018-08-31T04:10:27.445Z,9.93
2018-08-31T04:12:58.849Z,9.03
2018-08-31T04:15:29.872Z,8.10
2018-08-31T04:18:01.240Z,8.40
2018-08-31T04:20:32.944Z,8.73
2018-08-31T04:23:04.287Z,9.50
2018-08-31T04:25:35.576Z,9.87
2018-08-31T04:28:06.787Z,9.27
2018-08-31T04:30:37.761Z,8.67
2018-08-31T04:33:09.565Z,9.13
2018-08-31T04:35:40.560Z,9.93
2018-08-31T04:38:12.574Z,9.53
2018-08-31T04:40:43.879Z,10.40
2018-08-31T04:43:15.232Z,9.87
2018-08-31T04:45:46.477Z,10.03
2018-08-31T04:48:17.698Z,11.20
2018-08-31T04:50:48.724Z,10.33
2018-08-31T04:53:20.928Z,12.27
2018-08-31T04:55:52.068Z,10.37
2018-08-31T04:58:23.466Z,11.07
2018-08-31T05:00:54.839Z,9.20
2018-08-31T05:03:25.998Z,10.47
2018-08-31T05:05:57.225Z,10.50
2018-08-31T05:08:28.439Z,9.17
2018-08-31T05:10:59.859Z,8.93
2018-08-31T05:13:31.339Z,12.97
2018-08-31T05:16:02.679Z,12.40
2018-08-31T05:18:33.798Z,14.27
2018-08-31T05:21:05.108Z,10.57
2018-08-31T05:23:36.536Z,12.30
2018-08-31T05:26:07.800Z,13.10
2018-08-31T05:28:39.104Z,14.63
2018-08-31T05:31:10.344Z,11.17
2018-08-31T05:33:41.636Z,9.40
2018-08-31T05:36:13.191Z,9.87
2018-08-31T05:38:44.899Z,12.47
2018-08-31T05:41:16.048Z,10.63
2018-08-31T05:43:47.084Z,11.13
2018-08-31T05:46:18.449Z,10.57
2018-08-31T05:48:49.915Z,13.67
2018-08-31T05:51:21.506Z,11.27
2018-08-31T05:53:52.791Z,15.47
2018-08-31T05:56:23.985Z,10.80
2018-08-31T05:58:55.239Z,10.33
2018-08-31T06:01:26.651Z,11.40
2018-08-31T06:03:57.951Z,13.93
2018-08-31T06:06:29.142Z,12.60
2018-08-31T06:09:00.167Z,14.40
2018-08-31T06:11:32.029Z,11.90
2018-08-31T06:14:03.376Z,16.37
2018-08-31T06:16:34.539Z,12.07
2018-08-31T06:19:05.975Z,13.40
2018-08-31T06:21:37.229Z,12.43
2018-08-31T06:24:08.483Z,12.87
2018-08-31T06:26:41.206Z,12.73
2018-08-31T06:29:12.612Z,19.60
2018-08-31T06:31:43.636Z,13.47
2018-08-31T06:34:14.991Z,11.53
2018-08-31T06:36:46.227Z,9.70
2018-08-31T06:39:17.895Z,10.07
2018-08-31T06:41:49.160Z,17.53
2018-08-31T06:44:20.379Z,11.73
2018-08-31T06:46:51.547Z,14.93
2018-08-31T06:49:22.563Z,11.17
2018-08-31T06:51:53.759Z,10.70
2018-08-31T06:54:24.978Z,9.83
2018-08-31T06:56:56.109Z,18.83
2018-08-31T06:59:27.820Z,14.00
2018-08-31T07:01:59.106Z,11.93
2018-08-31T07:04:30.414Z,11.17
2018-08-31T07:07:01.685Z,10.00
2018-08-31T07:09:32.914Z,11.23
2018-08-31T07:12:04.318Z,11.33
2018-08-31T07:14:35.952Z,9.37
2018-08-31T07:17:07.163Z,11.73
2018-08-31T07:19:38.773Z,10.17
2018-08-31T07:22:10.048Z,10.10
2018-08-31T07:24:41.217Z,10.83
2018-08-31T07:27:12.194Z,11.13
2018-08-31T07:29:43.734Z,9.60
2018-08-31T07:32:15.664Z,9.67
2018-08-31T07:34:46.947Z,11.70
2018-08-31T07:37:17.988Z,9.77
2018-08-31T07:39:49.331Z,10.40
2018-08-31T07:42:20.579Z,10.37
2018-08-31T07:44:51.983Z,11.47
2018-08-31T07:47:23.299Z,10.00
2018-08-31T07:49:54.511Z,8.40
2018-08-31T07:52:25.533Z,8.83
2018-08-31T07:54:57.027Z,10.17
2018-08-31T07:57:28.288Z,8.03
2018-08-31T07:59:59.372Z,10.07
2018-08-31T08:02:30.460Z,10.97
2018-08-31T08:05:01.725Z,8.30
2018-08-31T08:07:33.101Z,10.80
2018-08-31T08:10:04.535Z,8.37
2018-08-31T08:12:35.856Z,8.90
2018-08-31T08:15:07.352Z,8.70
2018-08-31T08:17:38.600Z,9.43
2018-08-31T08:20:10.063Z,9.43
2018-08-31T08:22:41.312Z,8.87
2018-08-31T08:25:13.470Z,9.57
2018-08-31T08:27:44.751Z,9.17
2018-08-31T08:30:15.970Z,7.27
2018-08-31T08:32:47.308Z,9.57
2018-08-31T08:35:18.775Z,8.17
2018-08-31T08:37:50.097Z,10.97
2018-08-31T08:40:21.103Z,8.50
2018-08-31T08:42:52.267Z,8.40
2018-08-31T08:45:23.284Z,7.60
2018-08-31T08:47:54.459Z,7.83
2018-08-31T08:50:25.675Z,7.70
2018-08-31T08:52:57.331Z,8.50
2018-08-31T08:55:28.679Z,6.13
2018-08-31T08:57:59.996Z,7.00
2018-08-31T09:00:31.187Z,5.97
2018-08-31T09:03:02.386Z,5.97
2018-08-31T09:05:33.692Z,6.30
2018-08-31T09:08:05.064Z,6.97
2018-08-31T09:10:36.672Z,6.70
2018-08-31T09:13:07.780Z,9.40
2018-08-31T09:15:38.964Z,9.07
2018-08-31T09:18:09.953Z,8.40
2018-08-31T09:20:41.315Z,7.60
2018-08-31T09:23:12.614Z,7.17
2018-08-31T09:25:43.971Z,9.27
2018-08-31T09:28:15.312Z,7.47
2018-08-31T09:30:47.158Z,7.03
2018-08-31T09:33:18.777Z,7.77
2018-08-31T09:35:50.059Z,8.33
2018-08-31T09:38:21.141Z,7.47
2018-08-31T09:40:52.447Z,7.20
2018-08-31T09:43:23.440Z,9.83
2018-08-31T09:45:55.011Z,7.03
2018-08-31T09:48:26.495Z,11.07
2018-08-31T09:50:57.769Z,7.33
2018-08-31T09:53:29.159Z,11.10
2018-08-31T09:56:00.195Z,6.17
2018-08-31T09:58:32.043Z,7.10
2018-08-31T10:01:08.310Z,10.90
2018-08-31T10:03:39.675Z,8.33
2018-08-31T10:06:11.103Z,7.77
2018-08-31T10:08:42.273Z,9.33
2018-08-31T10:11:13.467Z,8.47
2018-08-31T10:13:44.811Z,6.53
2018-08-31T10:16:15.964Z,6.70
2018-08-31T10:18:47.329Z,13.93
2018-08-31T10:21:18.587Z,6.27
2018-08-31T10:23:50.011Z,20.97
2018-08-31T10:26:21.184Z,11.10
2018-08-31T10:28:52.171Z,7.63
2018-08-31T10:31:23.388Z,6.60
2018-08-31T10:33:54.733Z,14.20
2018-08-31T10:36:26.067Z,13.37
2018-08-31T10:38:57.310Z,6.67
2018-08-31T10:41:28.508Z,6.83
2018-08-31T10:43:59.709Z,8.20
2018-08-31T10:46:30.750Z,7.13
2018-08-31T10:49:02.151Z,6.30
2018-08-31T10:51:33.495Z,7.80
2018-08-31T10:54:04.873Z,8.70
2018-08-31T10:56:36.054Z,7.10
2018-08-31T10:59:07.576Z,6.42
2018-08-31T11:01:38.850Z,6.78
2018-08-31T11:04:10.102Z,8.23
2018-08-31T11:06:41.759Z,6.67
2018-08-31T11:09:12.851Z,8.95
2018-08-31T11:11:44.031Z,6.35
2018-08-31T11:14:15.390Z,6.65
2018-08-31T11:16:46.878Z,6.55
2018-08-31T11:19:18.814Z,8.23
2018-08-31T11:21:49.952Z,9.70
2018-08-31T11:24:21.402Z,7.45
2018-08-31T11:26:52.745Z,6.12
2018-08-31T11:29:23.932Z,6.80
2018-08-31T11:31:55.284Z,7.58
2018-08-31T11:34:26.801Z,8.53
2018-08-31T11:36:58.152Z,7.35
2018-08-31T11:39:29.794Z,7.08
2018-08-31T11:42:01.054Z,7.10
2018-08-31T11:44:32.243Z,6.40
2018-08-31T11:47:03.443Z,6.53
2018-08-31T11:49:34.626Z,9.28
2018-08-31T11:52:05.843Z,8.55
2018-08-31T11:54:37.268Z,7.78
2018-08-31T11:57:08.572Z,9.13
2018-08-31T11:59:40.066Z,6.87
2018-08-31T12:02:11.369Z,7.53
2018-08-31T12:04:42.359Z,6.60
2018-08-31T12:07:13.604Z,6.10
2018-08-31T12:09:44.799Z,5.85
2018-08-31T12:12:16.892Z,7.65
2018-08-31T12:14:48.013Z,5.60
2018-08-31T12:17:19.587Z,6.47
2018-08-31T12:19:50.876Z,6.77
2018-08-31T12:22:22.085Z,7.40
2018-08-31T12:24:53.775Z,6.00
2018-08-31T12:27:24.875Z,5.90
2018-08-31T12:29:56.535Z,6.47
2018-08-31T12:32:28.339Z,5.30
2018-08-31T12:34:59.731Z,6.80
2018-08-31T12:37:31.226Z,7.55
2018-08-31T12:40:02.425Z,6.45
2018-08-31T12:42:33.768Z,7.92
2018-08-31T12:45:05.143Z,7.15
2018-08-31T12:47:36.363Z,6.80
2018-08-31T12:50:08.026Z,6.17
2018-08-31T12:52:39.178Z,6.20
2018-08-31T12:55:10.820Z,7.00
2018-08-31T12:57:42.134Z,6.83
2018-08-31T13:00:13.877Z,7.42
2018-08-31T13:02:45.098Z,6.47
2018-08-31T13:05:16.322Z,8.13
2018-08-31T13:07:47.566Z,9.85
2018-08-31T13:10:18.707Z,7.05
2018-08-31T13:12:50.331Z,8.28
2018-08-31T13:15:21.748Z,6.40
2018-08-31T13:17:53.030Z,6.22
2018-08-31T13:20:24.169Z,5.70
2018-08-31T13:22:55.354Z,7.83
2018-08-31T13:25:27.777Z,6.25
2018-08-31T13:27:58.995Z,9.65
2018-08-31T13:30:30.226Z,7.62
2018-08-31T13:33:01.788Z,6.25
2018-08-31T13:35:33.437Z,6.92
2018-08-31T13:38:04.770Z,5.50
2018-08-31T13:40:35.954Z,6.10
2018-08-31T13:43:07.392Z,5.67
2018-08-31T13:45:38.692Z,5.78
2018-08-31T13:48:09.970Z,6.12
2018-08-31T13:50:41.554Z,7.42
2018-08-31T13:53:12.876Z,6.37
2018-08-31T13:55:45.091Z,7.12
2018-08-31T13:58:16.480Z,6.00
2018-08-31T14:00:47.841Z,5.73
2018-08-31T14:03:18.999Z,5.43
2018-08-31T14:05:50.254Z,9.27
2018-08-31T14:08:21.591Z,7.00
2018-08-31T14:10:59.446Z,5.43
2018-08-31T14:13:30.623Z,6.67
2018-08-31T14:16:01.840Z,8.80
2018-08-31T14:18:33.495Z,6.77
2018-08-31T14:21:04.934Z,5.97
2018-08-31T14:23:36.190Z,5.83
2018-08-31T14:26:07.536Z,9.33
2018-08-31T14:28:39.634Z,5.77
2018-08-31T14:31:10.955Z,5.33
2018-08-31T14:33:42.159Z,6.87
2018-08-31T14:36:13.796Z,6.00
2018-08-31T14:38:45.146Z,6.10
2018-08-31T14:41:16.345Z,5.30
2018-08-31T14:43:48.064Z,7.20
2018-08-31T14:46:19.292Z,6.37
2018-08-31T14:48:51.203Z,8.93
2018-08-31T14:51:22.466Z,5.10
2018-08-31T14:53:53.674Z,6.07
2018-08-31T14:56:25.098Z,6.67
2018-08-31T14:58:56.715Z,6.80
2018-08-31T15:01:27.818Z,7.03
2018-08-31T15:03:58.888Z,7.13
2018-08-31T15:06:30.029Z,4.97
2018-08-31T15:09:01.398Z,5.30
2018-08-31T15:11:32.587Z,5.60
2018-08-31T15:14:04.247Z,5.50
2018-08-31T15:16:35.537Z,10.90
2018-08-31T15:19:06.729Z,5.10
2018-08-31T15:21:37.731Z,7.70
2018-08-31T15:24:08.915Z,5.53
2018-08-31T15:26:40.153Z,5.40
2018-08-31T15:29:11.777Z,5.33
2018-08-31T15:31:42.931Z,6.13
2018-08-31T15:34:14.882Z,6.13
2018-08-31T15:36:46.690Z,5.10
2018-08-31T15:39:18.027Z,6.10
2018-08-31T15:41:49.632Z,6.23
2018-08-31T15:44:20.930Z,5.77
2018-08-31T15:46:52.191Z,5.30
2018-08-31T15:49:23.482Z,5.30
2018-08-31T15:51:55.280Z,5.57
2018-08-31T15:54:26.578Z,7.57
2018-08-31T15:57:01.689Z,5.40
2018-08-31T15:59:35.699Z,5.60
2018-08-31T16:02:11.288Z,5.57
2018-08-31T16:04:44.662Z,5.47
2018-08-31T16:07:19.110Z,5.27
2018-08-31T16:09:53.180Z,5.03
2018-08-31T16:12:26.859Z,6.77
2018-08-31T16:15:03.644Z,5.90
2018-08-31T16:17:39.711Z,5.27
2018-08-31T16:20:14.129Z,6.33
2018-08-31T16:22:48.209Z,7.97
2018-08-31T16:25:22.625Z,5.27
2018-08-31T16:27:55.749Z,7.83
2018-08-31T16:30:30.406Z,5.67
2018-08-31T16:33:04.687Z,5.47
2018-08-31T16:35:40.266Z,6.67
2018-08-31T16:38:14.641Z,6.13
2018-08-31T16:40:49.450Z,6.70
2018-08-31T16:43:22.677Z,4.70
2018-08-31T16:45:56.899Z,6.53
2018-08-31T16:48:30.938Z,4.80
2018-08-31T16:51:05.234Z,5.03
2018-08-31T16:53:38.697Z,7.43
2018-08-31T16:56:12.391Z,5.50
2018-08-31T16:58:47.132Z,4.27
2018-08-31T17:01:21.885Z,4.20
2018-08-31T17:03:57.803Z,5.17
2018-08-31T17:06:33.254Z,4.90
2018-08-31T17:09:11.048Z,4.57
2018-08-31T17:11:44.850Z,20.20
2018-08-31T17:14:18.582Z,6.93
2018-08-31T17:16:52.133Z,5.93
2018-08-31T17:19:26.891Z,5.47
2018-08-31T17:22:02.679Z,5.47
2018-08-31T17:24:37.704Z,7.13
2018-08-31T17:27:17.342Z,5.73
2018-08-31T17:29:50.895Z,5.57
2018-08-31T17:32:29.848Z,6.87
2018-08-31T17:35:13.917Z,5.53
2018-08-31T17:37:49.689Z,4.63
2018-08-31T17:40:24.429Z,6.40
2018-08-31T17:42:59.522Z,5.33
2018-08-31T17:45:32.743Z,6.10
2018-08-31T17:48:08.849Z,6.47
2018-08-31T17:50:44.310Z,4.90
2018-08-31T17:53:19.463Z,5.43
2018-08-31T17:55:55.617Z,4.57
2018-08-31T17:58:31.707Z,4.30
2018-08-31T18:01:07.101Z,3.97
2018-08-31T18:03:42.574Z,5.13
2018-08-31T18:06:15.990Z,4.63
2018-08-31T18:08:51.342Z,6.37
2018-08-31T18:11:22.599Z,5.93
2018-08-31T18:13:55.056Z,6.10
2018-08-31T18:16:26.428Z,6.07
2018-08-31T18:18:57.551Z,4.73
2018-08-31T18:21:29.616Z,7.27
2018-08-31T18:24:00.864Z,6.53
2018-08-31T18:26:31.955Z,4.43
2018-08-31T18:29:03.167Z,4.13
2018-08-31T18:31:34.807Z,6.67
2018-08-31T18:34:05.908Z,4.60
2018-08-31T18:36:36.912Z,5.33
2018-08-31T18:39:09.999Z,5.53
2018-08-31T18:41:41.027Z,4.67
2018-08-31T18:44:12.610Z,4.43
2018-08-31T18:46:43.906Z,6.00
2018-08-31T18:49:15.188Z,6.43
2018-08-31T18:51:46.935Z,6.73
2018-08-31T18:54:18.610Z,4.43
2018-08-31T18:56:49.818Z,7.70
2018-08-31T18:59:21.181Z,5.70
2018-08-31T19:01:52.545Z,5.07
2018-08-31T19:04:23.540Z,5.87
2018-08-31T19:06:54.660Z,8.20
2018-08-31T19:09:25.819Z,5.40
2018-08-31T19:11:57.138Z,6.07
2018-08-31T19:14:28.318Z,7.03
2018-08-31T19:16:59.601Z,7.50
2018-08-31T19:19:30.928Z,6.13
2018-08-31T19:22:02.519Z,5.70
2018-08-31T19:24:33.675Z,7.27
2018-08-31T19:27:04.896Z,7.73
2018-08-31T19:29:36.879Z,4.60
2018-08-31T19:32:08.302Z,7.10
2018-08-31T19:34:39.451Z,7.30
2018-08-31T19:37:10.828Z,4.70
2018-08-31T19:39:42.210Z,7.10
2018-08-31T19:42:13.362Z,6.43
2018-08-31T19:44:44.852Z,5.70
2018-08-31T19:47:16.156Z,6.47
2018-08-31T19:49:48.535Z,5.60
2018-08-31T19:52:19.783Z,4.60
2018-08-31T19:54:50.925Z,5.10
2018-08-31T19:57:22.118Z,7.00
2018-08-31T19:59:53.487Z,4.90
2018-08-31T20:02:24.915Z,10.17
2018-08-31T20:04:56.660Z,9.27
2018-08-31T20:07:27.847Z,5.03
2018-08-31T20:09:59.071Z,5.40
2018-08-31T20:12:30.240Z,9.87
2018-08-31T20:15:01.445Z,6.97
2018-08-31T20:17:32.611Z,5.00
2018-08-31T20:20:03.903Z,4.93
2018-08-31T20:22:35.100Z,6.33
2018-08-31T20:25:06.890Z,5.87
2018-08-31T20:27:37.980Z,6.07
2018-08-31T20:30:09.291Z,5.87
2018-08-31T20:32:40.954Z,7.00
2018-08-31T20:35:11.988Z,5.50
2018-08-31T20:37:44.183Z,5.53
2018-08-31T20:40:15.341Z,4.77
2018-08-31T20:42:46.996Z,6.97
2018-08-31T20:45:19.187Z,4.67
2018-08-31T20:47:50.475Z,4.77
2018-08-31T20:50:22.117Z,6.50
2018-08-31T20:52:53.455Z,4.47
2018-08-31T20:55:24.883Z,6.33
2018-08-31T20:57:56.268Z,5.20
2018-08-31T21:00:27.581Z,5.90
2018-08-31T21:02:59.018Z,5.63
2018-08-31T21:05:30.469Z,4.97
2018-08-31T21:08:01.983Z,6.87
2018-08-31T21:10:33.167Z,5.80
2018-08-31T21:13:04.635Z,4.57
2018-08-31T21:15:35.931Z,5.77
2018-08-31T21:18:07.281Z,6.60
2018-08-31T21:20:38.486Z,7.03
2018-08-31T21:23:09.715Z,7.47
2018-08-31T21:25:41.463Z,4.90
2018-08-31T21:28:13.327Z,4.47
2018-08-31T21:30:44.671Z,5.33
2018-08-31T21:33:15.843Z,8.10
2018-08-31T21:35:46.859Z,5.33
2018-08-31T21:38:18.223Z,6.70
2018-08-31T21:40:49.763Z,6.43
2018-08-31T21:43:21.007Z,7.23
2018-08-31T21:45:52.216Z,6.50
2018-08-31T21:48:24.010Z,4.73
2018-08-31T21:50:56.309Z,4.83
2018-08-31T21:53:27.551Z,7.73
2018-08-31T21:55:58.588Z,7.23
2018-08-31T21:58:29.867Z,4.90
2018-08-31T22:02:04.030Z,7.33
2018-08-31T22:04:35.199Z,6.17
2018-08-31T22:07:06.430Z,4.83
2018-08-31T22:09:38.089Z,7.60
2018-08-31T22:12:09.403Z,6.80
2018-08-31T22:14:40.785Z,8.77
2018-08-31T22:17:11.929Z,6.23
2018-08-31T22:19:43.179Z,7.43
2018-08-31T22:22:14.349Z,7.30
2018-08-31T22:24:45.337Z,7.07
2018-08-31T22:27:16.508Z,5.83
2018-08-31T22:29:47.659Z,6.80
2018-08-31T22:32:18.900Z,5.77
2018-08-31T22:34:50.111Z,4.70
2018-08-31T22:37:21.135Z,8.70
2018-08-31T22:39:52.294Z,5.77
2018-08-31T22:42:23.502Z,8.30
2018-08-31T22:44:54.846Z,4.97
2018-08-31T22:47:26.112Z,6.00
2018-08-31T22:49:57.472Z,5.07
2018-08-31T22:52:28.669Z,6.00
2018-08-31T22:55:00.016Z,5.63
2018-08-31T22:57:31.224Z,6.67
2018-08-31T23:00:03.209Z,7.70
2018-08-31T23:02:34.224Z,6.33
2018-08-31T23:05:05.480Z,5.37
2018-08-31T23:07:41.884Z,6.20
2018-08-31T23:10:13.355Z,7.73
2018-08-31T23:12:44.687Z,6.27
2018-08-31T23:15:15.855Z,5.50
2018-08-31T23:17:51.442Z,7.20
2018-08-31T23:20:23.196Z,7.47
2018-08-31T23:22:58.677Z,6.20
2018-08-31T23:25:34.735Z,5.47
2018-08-31T23:28:06.303Z,7.53
2018-08-31T23:30:37.547Z,6.07
2018-08-31T23:33:08.596Z,7.30
2018-08-31T23:35:40.030Z,5.80
2018-08-31T23:38:11.428Z,6.33
2018-08-31T23:40:42.736Z,7.17
2018-08-31T23:43:14.076Z,5.30
2018-08-31T23:45:55.014Z,5.40
2018-08-31T23:48:26.365Z,6.10
2018-08-31T23:50:57.748Z,6.27
2018-08-31T23:53:29.118Z,5.53
2018-08-31T23:56:00.491Z,7.13
2018-08-31T23:58:31.708Z,6.23
